createdAt,value
2023-02-02T00:01:39.217Z,2.40
2023-02-02T00:04:07.581Z,2.40
2023-02-02T00:06:37.231Z,2.40
2023-02-02T00:09:06.030Z,2.40
2023-02-02T00:11:34.208Z,2.40
2023-02-02T00:14:02.435Z,2.10
2023-02-02T00:16:42.557Z,2.50
2023-02-02T00:19:13.225Z,2.50
2023-02-02T00:21:43.572Z,2.50
2023-02-02T00:24:13.751Z,2.50
2023-02-02T00:26:43.369Z,2.50
2023-02-02T00:29:16.501Z,1.80
2023-02-02T00:31:44.937Z,2.50
2023-02-02T00:34:14.319Z,2.50
2023-02-02T00:36:44.438Z,2.50
2023-02-02T00:39:16.558Z,2.50
2023-02-02T00:41:44.805Z,2.50
2023-02-02T00:44:30.360Z,2.50
2023-02-02T00:46:58.672Z,2.40
2023-02-02T00:49:26.910Z,2.20
2023-02-02T00:51:56.504Z,2.20
2023-02-02T00:54:24.777Z,1.70
2023-02-02T00:56:53.035Z,1.50
2023-02-02T00:59:21.253Z,1.30
2023-02-02T01:01:49.550Z,1.20
2023-02-02T01:04:17.781Z,1.00
2023-02-02T01:06:45.880Z,0.90
2023-02-02T01:09:15.421Z,0.80
2023-02-02T01:11:43.563Z,0.70
2023-02-02T01:14:11.674Z,0.70
2023-02-02T01:16:39.903Z,0.70
2023-02-02T01:19:09.019Z,0.70
2023-02-02T01:21:37.249Z,0.60
2023-02-02T01:24:05.660Z,0.60
2023-02-02T01:26:35.322Z,0.60
2023-02-02T01:29:03.565Z,0.70
2023-02-02T01:31:31.795Z,0.60
2023-02-02T01:33:59.985Z,0.60
2023-02-02T01:36:28.227Z,0.60
2023-02-02T01:38:57.595Z,0.60
2023-02-02T01:41:27.170Z,0.60
2023-02-02T01:43:59.310Z,0.60
2023-02-02T01:46:29.592Z,0.60
2023-02-02T01:49:03.302Z,0.70
2023-02-02T01:51:37.300Z,0.70
2023-02-02T01:54:07.747Z,0.70
2023-02-02T01:56:38.688Z,0.70
2023-02-02T01:59:08.859Z,0.80
2023-02-02T02:01:37.110Z,0.80
2023-02-02T02:04:05.609Z,0.90
2023-02-02T02:06:34.466Z,0.90
2023-02-02T02:09:06.479Z,1.00
2023-02-02T02:11:36.600Z,1.10
2023-02-02T02:14:29.093Z,1.10
2023-02-02T02:17:16.913Z,1.20
2023-02-02T02:20:39.306Z,1.30
2023-02-02T02:23:56.163Z,1.50
2023-02-02T02:26:52.462Z,1.60
2023-02-02T02:29:53.160Z,1.60
2023-02-02T02:32:32.253Z,1.60
2023-02-02T02:35:06.762Z,1.70
2023-02-02T02:37:41.674Z,1.70
2023-02-02T02:40:17.600Z,1.70
2023-02-02T02:42:50.733Z,1.80
2023-02-02T02:45:20.294Z,1.80
2023-02-02T02:47:51.239Z,1.80
2023-02-02T02:50:19.413Z,1.80
2023-02-02T02:52:48.905Z,1.90
2023-02-02T02:55:17.196Z,1.90
2023-02-02T02:57:58.818Z,1.90
2023-02-02T03:00:47.335Z,2.00
2023-02-02T03:03:26.209Z,2.00
2023-02-02T03:05:57.885Z,2.10
2023-02-02T03:08:31.558Z,2.10
2023-02-02T03:11:02.299Z,2.10
2023-02-02T03:13:31.787Z,2.20
2023-02-02T03:16:00.388Z,2.20
2023-02-02T03:18:32.473Z,2.30
2023-02-02T03:21:00.741Z,2.30
2023-02-02T03:23:29.472Z,2.30
2023-02-02T03:25:57.697Z,2.40
2023-02-02T03:28:27.392Z,2.40
2023-02-02T03:30:57.044Z,2.40
2023-02-02T03:33:25.362Z,2.40
2023-02-02T03:35:54.893Z,2.50
2023-02-02T03:38:23.043Z,2.50
2023-02-02T03:40:52.268Z,2.50
2023-02-02T03:43:23.921Z,2.50
2023-02-02T03:45:57.442Z,2.50
2023-02-02T03:48:25.758Z,2.60
2023-02-02T03:50:55.339Z,2.70
2023-02-02T03:53:24.076Z,2.70
2023-02-02T03:55:52.254Z,2.70
2023-02-02T03:58:22.316Z,2.60
2023-02-02T04:00:50.732Z,2.70
2023-02-02T04:03:18.889Z,2.70
2023-02-02T04:05:51.181Z,2.70
2023-02-02T04:08:20.779Z,2.70
2023-02-02T04:10:48.932Z,2.80
2023-02-02T04:13:17.218Z,2.70
2023-02-02T04:15:45.555Z,2.70
2023-02-02T04:18:13.789Z,2.70
2023-02-02T04:20:41.933Z,2.80
2023-02-02T04:23:10.076Z,2.80
2023-02-02T04:25:39.588Z,2.80
2023-02-02T04:28:07.741Z,2.80
2023-02-02T04:30:35.932Z,2.80
2023-02-02T04:33:04.098Z,2.80
2023-02-02T04:35:32.228Z,2.80
2023-02-02T04:38:00.408Z,2.80
2023-02-02T04:40:28.631Z,2.80
2023-02-02T04:42:58.779Z,2.80
2023-02-02T04:45:27.322Z,2.80
2023-02-02T04:47:55.594Z,2.80
2023-02-02T04:50:24.063Z,2.80
2023-02-02T04:52:52.280Z,2.80
2023-02-02T04:55:24.024Z,2.80
2023-02-02T04:57:52.345Z,2.80
2023-02-02T05:00:22.327Z,2.80
2023-02-02T05:02:50.638Z,2.80
2023-02-02T05:05:20.436Z,2.80
2023-02-02T05:07:48.578Z,2.80
2023-02-02T05:10:16.897Z,2.80
2023-02-02T05:12:46.686Z,2.80
2023-02-02T05:15:14.891Z,2.80
2023-02-02T05:17:44.450Z,2.80
2023-02-02T05:20:13.802Z,2.80
2023-02-02T05:22:42.158Z,2.80
2023-02-02T05:25:11.572Z,2.80
2023-02-02T05:27:39.705Z,2.80
2023-02-02T05:30:09.144Z,2.80
2023-02-02T05:32:37.331Z,2.80
2023-02-02T05:35:08.386Z,2.80
2023-02-02T05:37:36.509Z,2.80
2023-02-02T05:40:04.781Z,2.80
2023-02-02T05:42:32.978Z,2.80
2023-02-02T05:45:01.097Z,2.80
2023-02-02T05:47:29.529Z,2.80
2023-02-02T05:49:57.866Z,2.80
2023-02-02T05:52:28.066Z,2.80
2023-02-02T05:54:56.259Z,2.80
2023-02-02T05:57:24.425Z,2.80
2023-02-02T05:59:52.607Z,2.80
2023-02-02T06:02:20.762Z,2.80
2023-02-02T06:04:48.933Z,2.80
2023-02-02T06:07:17.149Z,2.90
2023-02-02T06:09:46.657Z,2.80
2023-02-02T06:12:14.804Z,2.80
2023-02-02T06:14:43.212Z,2.80
2023-02-02T06:17:11.374Z,2.90
2023-02-02T06:19:39.561Z,2.90
2023-02-02T06:22:08.109Z,2.90
2023-02-02T06:24:36.236Z,2.90
2023-02-02T06:27:05.740Z,2.90
2023-02-02T06:29:33.900Z,2.90
2023-02-02T06:32:02.143Z,2.80
2023-02-02T06:34:30.342Z,2.80
2023-02-02T06:36:58.500Z,2.80
2023-02-02T06:39:26.704Z,2.80
2023-02-02T06:41:54.845Z,2.70
2023-02-02T06:44:24.349Z,2.80
2023-02-02T06:46:53.586Z,2.80
2023-02-02T06:49:21.887Z,2.70
2023-02-02T06:51:50.545Z,2.60
2023-02-02T06:54:18.837Z,2.70
2023-02-02T06:56:47.122Z,2.70
2023-02-02T06:59:15.292Z,2.70
2023-02-02T07:01:44.898Z,2.60
2023-02-02T07:04:13.065Z,2.70
2023-02-02T07:06:41.235Z,2.70
2023-02-02T07:09:09.427Z,2.70
2023-02-02T07:11:39.173Z,2.60
2023-02-02T07:14:11.186Z,2.70
2023-02-02T07:16:39.366Z,2.70
2023-02-02T07:19:09.286Z,2.60
2023-02-02T07:21:37.454Z,2.70
2023-02-02T07:24:06.933Z,2.70
2023-02-02T07:26:36.567Z,2.70
2023-02-02T07:29:05.549Z,2.70
2023-02-02T07:31:36.279Z,2.60
2023-02-02T07:34:04.967Z,2.60
2023-02-02T07:36:34.664Z,2.60
2023-02-02T07:39:04.904Z,2.60
2023-02-02T07:41:34.905Z,2.60
2023-02-02T07:44:03.108Z,2.60
2023-02-02T07:46:31.627Z,2.60
2023-02-02T07:48:59.756Z,2.60
2023-02-02T07:51:28.037Z,2.60
2023-02-02T07:53:59.502Z,2.60
2023-02-02T07:56:29.074Z,2.60
2023-02-02T07:58:57.982Z,2.60
2023-02-02T08:01:27.417Z,2.60
2023-02-02T08:03:57.031Z,2.60
2023-02-02T08:06:28.368Z,2.60
2023-02-02T08:08:58.253Z,2.60
2023-02-02T08:11:27.395Z,2.60
2023-02-02T08:13:57.202Z,2.60
2023-02-02T08:16:27.120Z,2.60
2023-02-02T08:18:55.795Z,2.50
2023-02-02T08:21:24.304Z,2.60
2023-02-02T08:23:54.606Z,2.60
2023-02-02T08:26:26.297Z,2.60
2023-02-02T08:28:56.241Z,2.60
2023-02-02T08:31:28.204Z,2.60
2023-02-02T08:33:58.515Z,2.60
2023-02-02T08:36:28.219Z,2.60
2023-02-02T08:38:56.424Z,2.50
2023-02-02T08:41:25.982Z,2.50
2023-02-02T08:43:54.151Z,2.50
2023-02-02T08:46:22.882Z,2.50
2023-02-02T08:48:51.282Z,2.60
2023-02-02T08:51:20.622Z,2.50
2023-02-02T08:53:48.849Z,2.60
2023-02-02T08:56:18.747Z,2.70
2023-02-02T08:58:50.507Z,2.70
2023-02-02T09:01:21.105Z,1.80
2023-02-02T09:03:49.559Z,2.70
2023-02-02T09:06:20.234Z,2.50
2023-02-02T09:08:48.897Z,2.50
2023-02-02T09:11:20.044Z,2.60
2023-02-02T09:13:53.932Z,2.60
2023-02-02T09:16:22.976Z,2.60
2023-02-02T09:18:51.389Z,2.60
2023-02-02T09:21:20.572Z,2.60
2023-02-02T09:23:50.560Z,2.70
2023-02-02T09:26:20.456Z,2.70
2023-02-02T09:28:51.880Z,3.30
2023-02-02T09:31:20.291Z,2.70
2023-02-02T09:33:48.576Z,2.70
2023-02-02T09:36:20.245Z,2.70
2023-02-02T09:38:49.199Z,2.70
2023-02-02T09:42:10.338Z,2.80
2023-02-02T09:44:58.265Z,2.70
2023-02-02T09:47:32.172Z,2.70
2023-02-02T09:50:04.907Z,2.70
2023-02-02T09:52:42.127Z,2.70
2023-02-02T09:55:17.072Z,2.80
2023-02-02T09:57:49.698Z,2.80
2023-02-02T10:00:28.587Z,2.70
2023-02-02T10:03:01.739Z,2.70
2023-02-02T10:05:43.432Z,2.70
2023-02-02T10:08:28.995Z,2.80
2023-02-02T10:11:04.720Z,2.70
2023-02-02T10:13:39.238Z,2.70
2023-02-02T10:16:17.160Z,2.70
2023-02-02T10:18:50.583Z,2.70
2023-02-02T10:21:27.003Z,2.60
2023-02-02T10:23:55.498Z,2.60
2023-02-02T10:26:29.513Z,2.70
2023-02-02T10:29:10.324Z,2.70
2023-02-02T10:31:45.655Z,2.70
2023-02-02T10:34:23.390Z,2.60
2023-02-02T10:37:16.669Z,2.60
2023-02-02T10:40:02.356Z,2.60
2023-02-02T10:42:40.422Z,2.60
2023-02-02T10:45:19.477Z,2.60
2023-02-02T10:47:49.023Z,2.70
2023-02-02T10:50:19.811Z,2.70
2023-02-02T10:52:51.129Z,2.70
2023-02-02T10:55:29.608Z,2.80
2023-02-02T10:58:12.564Z,2.80
2023-02-02T11:00:47.341Z,2.90
2023-02-02T11:03:19.735Z,2.90
2023-02-02T11:06:05.755Z,2.90
2023-02-02T11:08:36.785Z,3.00
2023-02-02T11:11:13.245Z,3.10
2023-02-02T11:13:46.392Z,3.10
2023-02-02T11:16:38.778Z,3.10
2023-02-02T11:19:29.683Z,3.20
2023-02-02T11:21:59.820Z,3.20
2023-02-02T11:24:29.983Z,3.20
2023-02-02T11:27:01.783Z,3.30
2023-02-02T11:29:32.700Z,3.40
2023-02-02T11:32:19.822Z,3.40
2023-02-02T11:34:49.440Z,3.50
2023-02-02T11:37:22.379Z,3.50
2023-02-02T11:39:52.471Z,3.60
2023-02-02T11:42:23.601Z,3.60
2023-02-02T11:44:55.009Z,3.60
2023-02-02T11:47:27.788Z,3.50
2023-02-02T11:49:59.621Z,3.50
2023-02-02T11:52:32.455Z,3.50
2023-02-02T11:55:03.819Z,3.50
2023-02-02T11:57:31.999Z,3.50
2023-02-02T12:00:19.534Z,3.40
2023-02-02T12:02:48.854Z,3.40
2023-02-02T12:05:35.486Z,3.30
2023-02-02T12:08:05.048Z,3.30
2023-02-02T12:10:48.181Z,3.20
2023-02-02T12:13:25.425Z,3.10
2023-02-02T12:16:09.096Z,3.10
2023-02-02T12:18:48.779Z,3.00
2023-02-02T12:21:22.734Z,2.90
2023-02-02T12:24:08.737Z,2.80
2023-02-02T12:26:40.272Z,2.80
2023-02-02T12:29:49.775Z,2.80
2023-02-02T12:32:38.823Z,2.80
2023-02-02T12:35:23.944Z,2.90
2023-02-02T12:38:02.388Z,3.00
2023-02-02T12:40:41.935Z,3.00
2023-02-02T12:43:24.630Z,3.10
2023-02-02T12:46:16.205Z,3.10
2023-02-02T12:49:08.715Z,3.10
2023-02-02T12:51:49.842Z,3.10
2023-02-02T12:54:50.755Z,3.10
2023-02-02T12:57:31.890Z,3.10
2023-02-02T13:00:26.964Z,3.10
2023-02-02T13:03:06.768Z,3.10
2023-02-02T13:05:57.771Z,3.20
2023-02-02T13:08:31.032Z,3.30
2023-02-02T13:11:05.753Z,3.30
2023-02-02T13:13:38.368Z,3.40
2023-02-02T13:16:09.834Z,3.40
2023-02-02T13:18:42.591Z,3.50
2023-02-02T13:21:16.823Z,3.90
2023-02-02T13:23:50.360Z,4.10
2023-02-02T13:26:22.340Z,4.40
2023-02-02T13:28:55.111Z,4.40
2023-02-02T13:31:27.391Z,4.40
2023-02-02T13:34:06.158Z,4.50
2023-02-02T13:36:39.017Z,4.40
2023-02-02T13:39:18.061Z,4.30
2023-02-02T13:41:49.334Z,4.60
2023-02-02T13:44:23.171Z,4.60
2023-02-02T13:46:57.318Z,4.70
2023-02-02T13:49:30.356Z,4.60
2023-02-02T13:52:16.544Z,4.80
2023-02-02T13:55:19.350Z,4.80
2023-02-02T13:58:11.603Z,4.60
2023-02-02T14:00:41.992Z,4.50
2023-02-02T14:03:33.766Z,4.40
2023-02-02T14:06:11.933Z,4.30
2023-02-02T14:08:55.287Z,4.40
2023-02-02T14:11:28.507Z,4.80
2023-02-02T14:14:18.652Z,5.20
2023-02-02T14:16:56.778Z,5.20
2023-02-02T14:19:50.303Z,5.30
2023-02-02T14:22:37.444Z,5.50
2023-02-02T14:25:28.836Z,5.30
2023-02-02T14:28:00.115Z,5.40
2023-02-02T14:30:33.761Z,5.30
2023-02-02T14:33:47.437Z,5.00
2023-02-02T14:36:18.064Z,4.60
2023-02-02T14:39:20.132Z,4.50
2023-02-02T14:42:34.538Z,4.40
2023-02-02T14:45:15.750Z,4.20
2023-02-02T14:47:53.873Z,4.00
2023-02-02T14:50:29.619Z,4.00
2023-02-02T14:53:01.311Z,3.90
2023-02-02T14:55:30.137Z,3.90
2023-02-02T14:58:01.256Z,3.80
2023-02-02T15:00:32.648Z,3.80
2023-02-02T15:03:36.916Z,3.30
2023-02-02T15:06:08.646Z,2.80
2023-02-02T15:08:37.027Z,2.50
2023-02-02T15:11:22.207Z,2.50
2023-02-02T15:14:07.282Z,2.50
2023-02-02T15:16:38.701Z,2.60
2023-02-02T15:19:23.712Z,2.70
2023-02-02T15:21:55.855Z,2.80
2023-02-02T15:24:28.435Z,2.80
2023-02-02T15:26:59.996Z,2.80
2023-02-02T15:29:42.009Z,2.80
2023-02-02T15:32:15.888Z,2.80
2023-02-02T15:34:49.909Z,2.80
2023-02-02T15:37:23.037Z,2.80
2023-02-02T15:39:55.877Z,2.80
2023-02-02T15:42:45.676Z,2.70
2023-02-02T15:45:46.229Z,2.70
2023-02-02T15:48:29.621Z,2.60
2023-02-02T15:51:06.454Z,2.60
2023-02-02T15:53:46.966Z,2.60
2023-02-02T15:56:29.943Z,2.60
2023-02-02T15:58:59.557Z,2.50
2023-02-02T16:01:30.726Z,2.50
2023-02-02T16:04:10.659Z,2.40
2023-02-02T16:06:40.276Z,2.40
2023-02-02T16:09:12.581Z,2.40
2023-02-02T16:11:43.308Z,2.40
2023-02-02T16:14:17.741Z,2.40
2023-02-02T16:16:47.576Z,2.40
2023-02-02T16:19:19.904Z,2.40
2023-02-02T16:21:55.152Z,2.40
2023-02-02T16:24:26.924Z,2.40
2023-02-02T16:26:58.630Z,2.40
2023-02-02T16:29:28.347Z,2.40
2023-02-02T16:31:58.601Z,2.30
2023-02-02T16:34:46.770Z,2.40
2023-02-02T16:37:20.255Z,2.50
2023-02-02T16:39:48.550Z,2.50
2023-02-02T16:42:26.316Z,2.50
2023-02-02T16:44:55.626Z,2.50
2023-02-02T16:47:38.930Z,2.40
2023-02-02T16:50:30.791Z,2.40
2023-02-02T16:53:03.098Z,2.50
2023-02-02T16:55:48.823Z,2.50
2023-02-02T16:58:21.677Z,2.40
2023-02-02T17:01:12.642Z,2.40
2023-02-02T17:03:50.236Z,2.40
2023-02-02T17:06:18.954Z,2.30
2023-02-02T17:08:48.636Z,2.30
2023-02-02T17:11:25.296Z,2.30
2023-02-02T17:13:54.390Z,2.30
2023-02-02T17:16:24.821Z,2.30
2023-02-02T17:18:53.376Z,2.30
2023-02-02T17:21:24.255Z,2.20
2023-02-02T17:23:54.967Z,2.30
2023-02-02T17:26:23.236Z,2.20
2023-02-02T17:28:57.071Z,2.20
2023-02-02T17:31:25.477Z,2.20
2023-02-02T17:33:53.642Z,2.20
2023-02-02T17:36:21.871Z,2.20
2023-02-02T17:38:50.119Z,2.30
2023-02-02T17:41:19.812Z,2.20
2023-02-02T17:43:48.035Z,2.20
2023-02-02T17:46:16.200Z,2.20
2023-02-02T17:48:44.486Z,2.20
2023-02-02T17:51:16.406Z,2.20
2023-02-02T17:53:46.170Z,2.20
2023-02-02T17:56:14.389Z,2.10
2023-02-02T17:58:44.034Z,2.10
2023-02-02T18:01:13.468Z,2.20
2023-02-02T18:03:44.841Z,2.20
2023-02-02T18:06:13.439Z,2.10
2023-02-02T18:08:41.978Z,2.10
2023-02-02T18:11:13.445Z,2.10
2023-02-02T18:13:44.384Z,2.10
2023-02-02T18:16:13.643Z,2.00
2023-02-02T18:18:41.870Z,2.00
2023-02-02T18:21:11.499Z,2.00
2023-02-02T18:23:39.955Z,1.90
2023-02-02T18:26:13.189Z,1.90
2023-02-02T18:28:43.052Z,1.90
2023-02-02T18:31:13.501Z,1.90
2023-02-02T18:33:42.220Z,1.80
2023-02-02T18:36:13.313Z,1.90
2023-02-02T18:38:43.982Z,1.90
2023-02-02T18:41:12.680Z,1.90
2023-02-02T18:43:40.971Z,1.90
2023-02-02T18:46:13.867Z,1.90
2023-02-02T18:48:42.812Z,1.90
2023-02-02T18:51:15.593Z,2.00
2023-02-02T18:53:44.027Z,1.90
2023-02-02T18:56:14.079Z,1.90
2023-02-02T18:58:42.616Z,1.90
2023-02-02T19:01:13.648Z,1.80
2023-02-02T19:03:41.960Z,1.90
2023-02-02T19:06:28.337Z,1.80
2023-02-02T19:08:56.699Z,1.80
2023-02-02T19:11:29.502Z,1.80
2023-02-02T19:13:57.962Z,1.80
2023-02-02T19:16:28.950Z,1.80
2023-02-02T19:18:58.470Z,1.80
2023-02-02T19:21:31.171Z,1.80
2023-02-02T19:24:01.414Z,1.80
2023-02-02T19:26:30.674Z,1.80
2023-02-02T19:29:04.442Z,1.70
2023-02-02T19:31:33.902Z,1.70
2023-02-02T19:34:03.630Z,1.60
2023-02-02T19:36:31.980Z,1.60
2023-02-02T19:39:06.424Z,1.60
2023-02-02T19:41:39.283Z,1.50
2023-02-02T19:44:15.996Z,1.40
2023-02-02T19:46:50.976Z,1.40
2023-02-02T19:49:33.512Z,1.30
2023-02-02T19:52:03.755Z,1.30
2023-02-02T19:54:34.926Z,1.30
2023-02-02T19:57:16.194Z,1.20
2023-02-02T19:59:48.202Z,1.20
2023-02-02T20:02:39.013Z,1.20
2023-02-02T20:05:19.014Z,1.20
2023-02-02T20:07:53.263Z,1.10
2023-02-02T20:10:24.834Z,1.10
2023-02-02T20:12:54.035Z,1.10
2023-02-02T20:15:28.570Z,1.10
2023-02-02T20:18:01.274Z,1.10
2023-02-02T20:20:34.075Z,1.10
2023-02-02T20:23:02.275Z,1.10
2023-02-02T20:25:32.480Z,1.10
2023-02-02T20:28:07.920Z,1.00
2023-02-02T20:30:36.653Z,0.90
2023-02-02T20:33:22.162Z,1.00
2023-02-02T20:35:50.607Z,1.00
2023-02-02T20:38:23.281Z,1.00
2023-02-02T20:40:52.098Z,1.00
2023-02-02T20:43:20.342Z,0.90
2023-02-02T20:45:48.800Z,0.90
2023-02-02T20:48:18.386Z,0.90
2023-02-02T20:50:47.677Z,0.90
2023-02-02T20:53:16.657Z,0.90
2023-02-02T20:55:45.054Z,0.90
2023-02-02T20:58:13.314Z,0.80
2023-02-02T21:00:41.703Z,0.80
2023-02-02T21:03:09.976Z,0.80
2023-02-02T21:05:39.522Z,0.70
2023-02-02T21:08:08.079Z,0.70
2023-02-02T21:10:36.194Z,0.70
2023-02-02T21:13:04.385Z,0.60
2023-02-02T21:15:32.679Z,0.70
2023-02-02T21:18:00.835Z,0.70
2023-02-02T21:20:29.329Z,0.60
2023-02-02T21:22:59.060Z,0.60
2023-02-02T21:25:27.180Z,0.60
2023-02-02T21:27:55.518Z,0.60
2023-02-02T21:30:24.171Z,0.60
2023-02-02T21:32:52.568Z,0.60
2023-02-02T21:35:20.666Z,0.60
2023-02-02T21:37:54.182Z,0.60
2023-02-02T21:40:29.659Z,0.60
2023-02-02T21:43:01.100Z,0.60
2023-02-02T21:45:37.287Z,0.60
2023-02-02T21:48:08.693Z,0.60
2023-02-02T21:50:38.865Z,0.70
2023-02-02T21:53:20.455Z,0.60
2023-02-02T21:55:53.436Z,0.70
2023-02-02T21:58:24.988Z,0.70
2023-02-02T22:00:53.809Z,0.70
2023-02-02T22:03:33.169Z,0.80
2023-02-02T22:06:17.006Z,0.70
2023-02-02T22:08:45.219Z,0.80
2023-02-02T22:11:24.749Z,0.80
2023-02-02T22:13:54.026Z,0.80
2023-02-02T22:16:22.229Z,0.80
2023-02-02T22:18:50.422Z,0.90
2023-02-02T22:21:21.036Z,0.90
2023-02-02T22:23:49.393Z,0.90
2023-02-02T22:26:31.977Z,0.90
2023-02-02T22:29:00.142Z,0.90
2023-02-02T22:31:28.311Z,0.90
2023-02-02T22:33:56.468Z,0.90
2023-02-02T22:36:24.648Z,0.80
2023-02-02T22:38:52.719Z,0.80
2023-02-02T22:41:22.215Z,0.80
2023-02-02T22:43:50.391Z,0.80
2023-02-02T22:46:18.576Z,0.70
2023-02-02T22:48:46.709Z,0.70
2023-02-02T22:51:14.821Z,0.70
2023-02-02T22:53:42.902Z,0.70
2023-02-02T22:56:11.018Z,0.70
2023-02-02T22:58:40.873Z,0.70
2023-02-02T23:01:09.444Z,0.70
2023-02-02T23:03:37.593Z,0.70
2023-02-02T23:06:05.850Z,0.70
2023-02-02T23:08:34.010Z,0.70
2023-02-02T23:11:02.186Z,0.70
2023-02-02T23:13:30.328Z,0.80
2023-02-02T23:15:59.885Z,0.80
2023-02-02T23:18:27.997Z,0.80
2023-02-02T23:20:56.151Z,0.70
2023-02-02T23:23:24.299Z,0.70
2023-02-02T23:25:52.381Z,0.60
2023-02-02T23:28:20.702Z,0.70
2023-02-02T23:30:48.884Z,0.70
2023-02-02T23:33:18.358Z,0.60
2023-02-02T23:35:46.508Z,0.60
2023-02-02T23:38:14.647Z,0.70
2023-02-02T23:40:42.749Z,0.70
2023-02-02T23:43:11.496Z,0.80
2023-02-02T23:45:39.896Z,0.80
2023-02-02T23:48:08.761Z,0.70
2023-02-02T23:50:38.926Z,0.70
2023-02-02T23:53:07.541Z,0.70
2023-02-02T23:55:35.803Z,0.60
2023-02-02T23:58:04.427Z,0.60
